x

Stennis Test Facility (ostf1) Weather Station

12:50pm - Sat 28th May 2016 All times are CDT. -5 hours from GMT.

  • Wind
    2mph, 7mph gusts
  • Air Temp 81°f
  • Sea Pressure 1017.5mb
  • Stennis Test Facility
  • Stennis Test Facility

More Historic Weather Station data

Upgrade to MSW Pro to gain access to the past 30 days of data for over 8000 Wavebouys and Weather Stations around the globe.

Join Pro

Comparision Forecast

View Surf forecast
   
Sat 05/28 12:50pm 2 7 mph 1017.5mb 81f
11:50am 2 7 mph 1017.4mb 81f
10:50am 4 9 mph 1016.8mb 81f
9:50am 4 9 mph 1015.9mb 79f
8:50am 4 9 mph 1015.3mb 77f
7:50am 4 9 mph 1013.9mb 76f
6:50am  -  2 mph 1014.6mb 72f
5:50am  -  mph 1014.9mb 71f
4:50am  -  mph 1015.4mb 71f
3:50am  -  2 mph 1015mb 71f
2:50am  -  2 mph 1014.6mb 72f
1:50am  -  mph 1015.1mb 71f
12:50am  -  2 mph 1015.5mb 72f
Fri 05/27 11:50pm  -  mph 1016.2mb 74f
10:50pm  -  mph 1015.9mb 75f
9:50pm  -  2 mph 1015mb 76f
8:50pm 2 4 mph 1014.3mb 77f
7:50pm 4 7 mph 1014.4mb 78f
6:50pm 7 11 mph 1014mb 80f
5:50pm 7 16 mph 1014mb 80f
4:50pm 7 13 mph 1013.7mb 82f
3:50pm 11 18 mph 1013.5mb 82f
2:50pm 9 20 mph 1013.8mb 82f
1:50pm 9 16 mph 1015.2mb 82f
12:50pm 9 22 mph 1015.9mb 83f
11:50am 9 16 mph 1016.6mb 82f
10:50am 7 13 mph 1016.4mb 82f
9:50am 7 11 mph 1015.9mb 81f
8:50am 7 11 mph 1015.1mb 79f
7:50am 2 4 mph 1015.3mb 76f
6:50am  -  2 mph 1015.5mb 76f
5:50am 2 7 mph 1014.7mb 76f
4:50am  -  2 mph 1014.5mb 75f
3:50am 4 7 mph 1014.5mb 76f
2:50am  -  4 mph 1015.2mb 76f
1:50am 2 4 mph 1015.6mb 77f
12:50am 2 4 mph 1015.9mb 75f
Thu 05/26 11:50pm 2 4 mph 1016.3mb 75f
10:50pm  -  2 mph 1016.9mb 75f
9:50pm  -  2 mph 1017.1mb 76f
8:50pm 2
mph
1016.3mb 76f
7:50pm 2 4 mph 1016.1mb 78f
6:50pm 4 7 mph 1016.9mb 80f
5:50pm 7 16 mph 1016.1mb 82f
4:50pm 7 11 mph 1017.2mb 82f
3:50pm 7 13 mph 1018.1mb 84f
2:50pm 7 13 mph 1018.5mb 84f
1:50pm 7 16 mph 1018.5mb 83f
12:50pm 7 13 mph 1018.8mb 84f
11:50am 7 11 mph 1019.6mb 83f
10:50am 4 11 mph 1019.9mb 83f
9:50am 4 9 mph 1020.2mb 81f
8:50am 2 7 mph 1020.1mb 78f
7:50am  -  2 mph 1020.2mb 72f
6:50am  -  mph 1019.8mb 70f
5:50am  -  2 mph 1019.4mb 69f
4:50am  -  2 mph 1018.9mb 70f
3:50am  -  2 mph 1018.4mb 71f
2:50am  -  2 mph 1018.1mb 71f
1:50am 2 4 mph 1018.4mb 74f
12:50am 2 4 mph 1019.6mb 73f
Wed 05/25 11:50pm  -  2 mph 1020.5mb 71f
10:50pm  -  mph 1021.3mb 72f
9:50pm  -  2 mph 1020.9mb 73f
8:50pm  -  mph 1020.3mb 75f
7:50pm 2 7 mph 1020.1mb 78f
6:50pm 7 11 mph 1019.8mb 80f
5:50pm 7 16 mph 1019.9mb 81f
4:50pm 7 11 mph 1020.4mb 81f
3:50pm 7 16 mph 1020.4mb 82f
2:50pm 7 11 mph 1020.9mb 83f
1:50pm 9 16 mph 1021.2mb 83f
12:50pm 7 13 mph 1021.3mb 84f
11:50am 7 11 mph 1021.5mb 83f
10:50am 4 11 mph 1021.3mb 82f
9:50am 4 11 mph 1021.3mb 81f
8:50am 4 9 mph 1021.1mb 79f
7:50am 2 4 mph 1020.6mb 74f
6:50am  -  mph 1019.8mb 69f
5:50am  -  2 mph 1019.5mb 68f
4:50am  -  mph 1019.4mb 68f
3:50am  -  mph 1018.6mb 68f
2:50am  -  mph 1019.2mb 68f
1:50am  -  mph 1019.4mb 69f
12:50am  -  2 mph 1019.6mb 70f
Tue 05/24 11:50pm  -  2 mph 1020mb 71f
10:50pm  -  2 mph 1020.6mb 72f
9:50pm 2
mph
1020.4mb 74f
8:50pm  -  2 mph 1019.6mb 75f
7:50pm 2 4 mph 1019.4mb 77f